»·PEaware :: DAL396 KSAN-KLAS

DAL396 :: KSAN-KLAS

FLIGHT INFORMATION

Flight Status: Arrived
Operator:
Delta Air Lines
More flights by this operator :: More flights under this callsign
Pilot: Jacob K. (19449)
Aircraft: BOEING 737-800
(B738)
More flights by this aircraft type
Origin: KSAN San Diego Intl-Lindbergh
United States
Destination: KLAS McCarran Intl
United States
More flights between these airports :: More routes between these airports
Route: + MISEN KEPEC6
File this flight plan on PilotEdge
Remarks:
Altitude:
(Current/Filed)
29,000ft
Speed:
(Current/Filed)
460kts
Departed: 29-Sep-18 03:45 PM
Arrived: 29-Sep-18 04:33 PM
Distance/Time
Traveled:
225nm/0:48
Distance/Time
To Go:
Arrived

Flight Plot

Page will automatically refresh every two minutes.

Flight plan parsing failed; only flown route is shown


Map Options




Map Legend


Flown Route
Filed Route
Departure Airport
Arrival Airport
Navaid (VOR, NDB)
Fix

Horizontal Profiles

Position Reports

Time Latitude Longitude Heading Altitude Ground
Speed
29-Sep-18 15:17 32.733142 -117.195664 226 25ft 0kts
29-Sep-18 15:18 32.733142 -117.195664 226 25ft 0kts
29-Sep-18 15:19 32.733142 -117.195664 226 25ft 0kts
29-Sep-18 15:20 32.733142 -117.195664 226 25ft 0kts
29-Sep-18 15:21 32.733142 -117.195664 226 25ft 0kts
29-Sep-18 15:22 32.733142 -117.195664 226 25ft 0kts
29-Sep-18 15:23 32.733142 -117.195664 226 25ft 0kts
29-Sep-18 15:24 32.733142 -117.195664 226 25ft 0kts
29-Sep-18 15:25 32.733142 -117.195664 226 25ft 0kts
29-Sep-18 15:26 32.733142 -117.195664 226 25ft 0kts
29-Sep-18 15:27 32.733142 -117.195664 226 25ft 0kts
29-Sep-18 15:28 32.733142 -117.195664 226 25ft 0kts
29-Sep-18 15:29 32.733142 -117.195664 226 25ft 0kts
29-Sep-18 15:30 32.733142 -117.195664 226 25ft 0kts
29-Sep-18 15:31 32.733142 -117.195664 226 25ft 0kts
29-Sep-18 15:32 32.733142 -117.195664 226 25ft 0kts
29-Sep-18 15:33 32.733142 -117.195664 226 25ft 0kts
29-Sep-18 15:34 32.733142 -117.195664 226 25ft 0kts
29-Sep-18 15:35 32.733142 -117.195663 226 25ft 0kts
29-Sep-18 15:36 32.733330 -117.195294 259 25ft 2kts
29-Sep-18 15:37 32.733128 -117.194667 324 25ft 2kts
29-Sep-18 15:38 32.732574 -117.194608 27 25ft 0kts
29-Sep-18 15:39 32.732511 -117.194652 30 25ft 0kts
29-Sep-18 15:40 32.732511 -117.194652 30 25ft 0kts
29-Sep-18 15:41 32.733167 -117.194193 36 25ft 9kts
29-Sep-18 15:42 32.732716 -117.190512 106 25ft 13kts
29-Sep-18 15:43 32.731522 -117.185566 104 25ft 17kts
29-Sep-18 15:44 32.730068 -117.179553 106 25ft 20kts
29-Sep-18 15:45 32.729512 -117.177208 101 25ft 0kts
29-Sep-18 15:46 32.730090 -117.175935 341 25ft 8kts
29-Sep-18 15:47 32.736012 -117.199540 286 147ft 138kts
29-Sep-18 15:48 32.754594 -117.245839 305 1705ft 190kts
29-Sep-18 15:49 32.793651 -117.308899 305 4202ft 258kts
29-Sep-18 15:50 32.837799 -117.377795 304 7744ft 272kts
29-Sep-18 15:51 32.885664 -117.451985 303 10456ft 307kts
29-Sep-18 15:52 32.939958 -117.536438 303 13227ft 332kts
29-Sep-18 15:53 32.996657 -117.624805 303 16075ft 345kts
29-Sep-18 15:54 33.055525 -117.716793 302 18700ft 357kts
29-Sep-18 15:55 33.118349 -117.785814 314 20706ft 375kts
29-Sep-18 15:56 33.198867 -117.867144 314 22872ft 387kts
29-Sep-18 15:57 33.283750 -117.949768 315 24809ft 398kts
29-Sep-18 15:58 33.374809 -118.026468 334 26587ft 422kts
29-Sep-18 15:59 33.494439 -118.028806 16 28172ft 456kts
29-Sep-18 16:00 33.590951 -117.954695 39 28963ft 478kts
29-Sep-18 16:01 33.687916 -117.857486 39 28961ft 508kts
29-Sep-18 16:02 33.794272 -117.750400 39 28951ft 511kts
29-Sep-18 16:03 33.902416 -117.641129 39 28942ft 512kts
29-Sep-18 16:04 34.011168 -117.530849 39 28943ft 512kts
29-Sep-18 16:05 34.116096 -117.424072 39 28938ft 519kts
29-Sep-18 16:06 34.224462 -117.313445 40 28930ft 519kts
29-Sep-18 16:07 34.334231 -117.201149 40 28937ft 518kts
29-Sep-18 16:08 34.444046 -117.088381 40 28935ft 518kts
29-Sep-18 16:09 34.553143 -116.975924 40 28918ft 513kts
29-Sep-18 16:10 34.661151 -116.864187 39 28883ft 513kts
29-Sep-18 16:11 34.768307 -116.752920 40 27579ft 507kts
29-Sep-18 16:12 34.873588 -116.643271 40 25452ft 482kts
29-Sep-18 16:13 34.973838 -116.538484 40 24012ft 480kts
29-Sep-18 16:14 35.076229 -116.431187 40 23921ft 490kts
29-Sep-18 16:15 35.168949 -116.321270 46 23912ft 489kts
29-Sep-18 16:16 35.263461 -116.202141 46 23913ft 490kts
29-Sep-18 16:17 35.359004 -116.081758 46 23912ft 498kts
29-Sep-18 16:18 35.455227 -115.960107 46 21768ft 491kts
29-Sep-18 16:19 35.546475 -115.844358 46 17959ft 459kts
29-Sep-18 16:20 35.631835 -115.735696 46 14459ft 426kts
29-Sep-18 16:21 35.708363 -115.637979 46 13054ft 364kts
29-Sep-18 16:22 35.788550 -115.578013 11 13048ft 338kts
29-Sep-18 16:23 35.881370 -115.568668 359 13042ft 335kts
29-Sep-18 16:24 35.966742 -115.527804 42 13025ft 340kts
29-Sep-18 16:25 36.018952 -115.434074 61 11899ft 330kts
29-Sep-18 16:26 36.034594 -115.335030 110 10578ft 285kts
29-Sep-18 16:27 36.021611 -115.242822 100 9491ft 279kts
29-Sep-18 16:28 36.015051 -115.150653 100 9036ft 257kts
29-Sep-18 16:29 36.009116 -115.062816 99 9037ft 256kts
29-Sep-18 16:30 36.009337 -114.977141 70 8168ft 250kts
29-Sep-18 16:31 36.065128 -114.954049 310 6451ft 223kts
29-Sep-18 16:32 36.076660 -115.016900 256 4944ft 176kts
29-Sep-18 16:33 36.074389 -115.075550 261 3576ft 155kts
29-Sep-18 16:34 36.073660 -115.126478 263 2233ft 136kts
29-Sep-18 16:35 36.074341 -115.145111 301 2189ft 12kts
29-Sep-18 16:36 36.074899 -115.146208 313 2189ft 13kts
29-Sep-18 16:37 36.079349 -115.147358 324 2189ft 9kts
29-Sep-18 16:38 36.079912 -115.147058 63 2189ft 0kts

Navigation Log

Ident Type
Flight plan parsing failed, navigation log unavailable